Time;durP1;ratioP1;P1;durP2;ratioP2;P2;SDS_P1;SDS_P2;PMS_P1;PMS_P2;Temp;Humidity;BMP_temperature;BMP_pressure;BME280_temperature;BME280_humidity;BME280_pressure;Samples;Min_cycle;Max_cycle;Signal;HPM_P1;HPM_P2
2021/12/28 00:01:24;;;;;;;;;;;;;;;10.20;74.08;99368.75;5139731;27;26730;-78
2021/12/28 00:03:50;;;;;;;;;;;;;;;10.22;73.58;99361.78;5139586;27;26963;-78
2021/12/28 00:06:15;;;;;;;;;;;;;;;10.24;73.20;99354.81;5139520;27;39482;-78
2021/12/28 00:08:41;;;;;;;;;;;;;;;10.26;73.15;99354.75;5139320;27;27939;-79
2021/12/28 00:11:06;;;;;;;;;;;;;;;10.28;73.28;99360.66;5139404;27;26980;-78
2021/12/28 00:13:33;;;;;;;;;;;;;;;10.30;74.15;99364.84;5138848;27;28005;-78
2021/12/28 00:16:18;;;;;;;;;;;;;;;10.30;74.12;99370.00;5139187;27;26550;-78
2021/12/28 00:18:44;;;;;;;;;;;;;;;10.31;73.93;99376.81;5139054;27;26864;-79
2021/12/28 00:21:09;;;;;;;;;;;;;;;10.34;73.22;99376.72;5139182;27;27116;-78
2021/12/28 00:23:39;;;;;;;;;;;;;;;10.36;73.46;99374.88;5138732;27;26991;-78
2021/12/28 00:26:05;;;;;;;;;;;;;;;10.41;73.84;99375.50;5138126;27;26972;-78
2021/12/28 00:28:30;;;;;;;;;;;;;;;10.43;73.56;99376.25;5145118;27;26862;-78
2021/12/28 00:30:56;;;;;;;;;;;;;;;10.45;73.69;99369.28;5146176;27;26784;-78
2021/12/28 00:33:22;;;;;;;;;;;;;;;10.46;73.72;99370.94;5139630;27;27604;-78
2021/12/28 00:35:47;;;;;;;;;;;;;;;10.45;73.59;99369.28;5138881;27;26728;-78
2021/12/28 00:38:14;;;;;;;;;;;;;;;10.45;73.56;99365.88;5139070;27;26914;-78
2021/12/28 00:40:40;;;;;;;;;;;;;;;10.46;73.46;99373.53;5139775;27;27010;-78
2021/12/28 00:43:05;;;;;;;;;;;;;;;10.47;73.14;99367.47;5139840;27;26924;-78
2021/12/28 00:45:30;;;;;;;;;;;;;;;10.24;74.13;99323.84;5140370;27;26952;-77
2021/12/28 00:47:55;;;;;;;;;;;;;;;10.47;73.09;99362.31;5139943;27;27598;-77
2021/12/28 00:50:22;;;;;;;;;;;;;;;10.49;73.65;99354.50;5139148;27;26741;-78
2021/12/28 00:52:47;;;;;;;;;;;;;;;10.49;73.73;99355.34;5138601;27;26898;-78
2021/12/28 00:55:13;;;;;;;;;;;;;;;10.50;73.23;99353.56;5139406;27;26978;-77
2021/12/28 00:57:39;;;;;;;;;;;;;;;10.51;73.57;99363.00;5139851;27;27000;-78
2021/12/28 01:00:07;;;;;;;;;;;;;;;10.52;73.63;99354.34;5139764;27;26728;-77
2021/12/28 01:02:32;;;;;;;;;;;;;;;10.54;73.71;99353.34;5140534;27;27991;-78
2021/12/28 01:04:57;;;;;;;;;;;;;;;10.53;73.64;99351.69;5139788;27;26870;-78
2021/12/28 01:07:22;;;;;;;;;;;;;;;10.55;74.23;99354.19;5139564;27;26855;-78
2021/12/28 01:09:48;;;;;;;;;;;;;;;10.56;73.57;99341.22;5140750;27;26740;-78
2021/12/28 01:12:13;;;;;;;;;;;;;;;10.56;73.26;99343.81;5140230;27;26855;-77
2021/12/28 01:14:38;;;;;;;;;;;;;;;10.57;74.27;99342.88;5140320;27;26850;-78
2021/12/28 01:17:04;;;;;;;;;;;;;;;10.58;73.53;99334.22;5140583;27;26838;-78
2021/12/28 01:19:29;;;;;;;;;;;;;;;10.58;74.14;99329.06;5140232;27;26892;-78
2021/12/28 01:21:54;;;;;;;;;;;;;;;10.59;73.85;99335.91;5139732;27;55528;-78
2021/12/28 01:24:20;;;;;;;;;;;;;;;10.59;73.21;99335.91;5140640;27;26935;-77
2021/12/28 01:26:46;;;;;;;;;;;;;;;10.58;74.09;99329.06;5140292;27;26984;-78
2021/12/28 01:29:11;;;;;;;;;;;;;;;10.54;72.78;99327.53;5139342;27;26757;-78
2021/12/28 01:31:37;;;;;;;;;;;;;;;10.49;73.46;99329.53;5139871;27;26809;-78
2021/12/28 01:34:03;;;;;;;;;;;;;;;10.45;73.20;99330.56;5139760;27;26902;-78
2021/12/28 01:36:28;;;;;;;;;;;;;;;10.38;73.02;99326.63;5139760;27;27513;-78
2021/12/28 01:38:53;;;;;;;;;;;;;;;10.32;72.50;99326.91;5142445;27;26769;-78
2021/12/28 01:41:19;;;;;;;;;;;;;;;10.27;73.19;99328.88;5143122;27;26771;-78
2021/12/28 01:43:44;;;;;;;;;;;;;;;10.21;72.55;99329.16;5145038;27;26827;-78
2021/12/28 01:46:10;;;;;;;;;;;;;;;10.15;73.39;99329.44;5153770;27;26768;-78
2021/12/28 01:48:37;;;;;;;;;;;;;;;10.11;73.14;99327.88;5145777;27;26771;-78
2021/12/28 01:51:05;;;;;;;;;;;;;;;10.05;73.28;99323.00;5145063;27;26890;-78
2021/12/28 01:53:30;;;;;;;;;;;;;;;10.00;72.97;99319.81;5144273;27;27001;-78
2021/12/28 01:55:57;;;;;;;;;;;;;;;9.95;72.86;99322.59;5130270;27;27578;-77
2021/12/28 01:58:22;;;;;;;;;;;;;;;9.91;72.81;99325.38;5146563;27;26766;-78
2021/12/28 02:00:49;;;;;;;;;;;;;;;9.88;72.37;99325.53;5145036;27;26865;-78
2021/12/28 02:03:16;;;;;;;;;;;;;;;9.82;73.29;99325.81;5144423;27;26847;-78
2021/12/28 02:05:42;;;;;;;;;;;;;;;9.80;73.23;99327.59;5144583;27;27577;-79
2021/12/28 02:08:08;;;;;;;;;;;;;;;9.77;72.94;99328.59;5143734;27;26871;-79
2021/12/28 02:10:33;;;;;;;;;;;;;;;9.74;72.53;99327.91;5144529;27;27396;-79
2021/12/28 02:12:59;;;;;;;;;;;;;;;9.70;73.25;99333.19;5143160;27;26442;-78
2021/12/28 02:15:24;;;;;;;;;;;;;;;9.68;73.04;99322.09;5143336;27;27463;-78
2021/12/28 02:17:49;;;;;;;;;;;;;;;9.65;73.12;99319.66;5143110;27;26997;-78
2021/12/28 02:20:16;;;;;;;;;;;;;;;9.62;73.22;99314.66;5143113;27;26660;-78
2021/12/28 02:22:41;;;;;;;;;;;;;;;9.60;73.17;99316.44;5142416;27;26803;-78
2021/12/28 02:25:07;;;;;;;;;;;;;;;9.58;73.13;99313.13;5143218;27;26745;-79
2021/12/28 02:27:34;;;;;;;;;;;;;;;9.57;73.07;99305.44;5142664;27;26749;-78
2021/12/28 02:30:00;;;;;;;;;;;;;;;9.55;73.08;99310.69;5142788;27;26739;-78
2021/12/28 02:32:26;;;;;;;;;;;;;;;9.53;73.14;99309.06;5152691;27;26766;-78
2021/12/28 02:34:51;;;;;;;;;;;;;;;9.49;73.49;99303.22;5147957;27;26859;-79
2021/12/28 02:37:16;;;;;;;;;;;;;;;9.47;73.75;99299.88;5144576;27;26820;-79
2021/12/28 02:39:41;;;;;;;;;;;;;;;9.45;73.45;99301.66;5143005;27;56984;-78
2021/12/28 02:42:07;;;;;;;;;;;;;;;9.43;73.37;99298.34;5143108;27;32030;-78
2021/12/28 02:44:32;;;;;;;;;;;;;;;9.40;73.88;99290.75;5143563;27;26946;-78
2021/12/28 02:46:57;;;;;;;;;;;;;;;9.39;73.31;99296.81;5143135;27;26762;-78
2021/12/28 02:49:22;;;;;;;;;;;;;;;9.37;73.13;99293.47;5144031;27;56430;-78
2021/12/28 02:51:47;;;;;;;;;;;;;;;9.35;73.46;99290.09;5149258;27;54090;-78
2021/12/28 02:54:13;;;;;;;;;;;;;;;9.34;73.64;99283.28;5143678;27;34913;-78
2021/12/28 02:56:38;;;;;;;;;;;;;;;9.33;73.61;99286.78;5142920;27;44109;-79
2021/12/28 02:59:03;;;;;;;;;;;;;;;9.35;73.61;99279.81;5143618;27;26971;-79
2021/12/28 03:01:29;;;;;;;;;;;;;;;9.39;73.71;99286.50;5143263;27;28168;-78
2021/12/28 03:03:56;;;;;;;;;;;;;;;9.44;74.22;99289.72;5143308;27;26785;-79
2021/12/28 03:06:22;;;;;;;;;;;;;;;9.47;74.81;99284.41;5142521;27;26888;-79
2021/12/28 03:08:49;;;;;;;;;;;;;;;9.50;74.36;99284.28;5141947;27;27082;-79
2021/12/28 03:11:14;;;;;;;;;;;;;;;9.52;74.18;99277.28;5142096;27;26823;-78
2021/12/28 03:13:41;;;;;;;;;;;;;;;9.55;74.19;99276.34;5142055;27;27012;-78
2021/12/28 03:16:07;;;;;;;;;;;;;;;9.58;74.37;99279.63;5142004;27;26975;-78
2021/12/28 03:18:33;;;;;;;;;;;;;;;9.62;74.50;99275.16;5141545;27;27050;-78
2021/12/28 03:20:58;;;;;;;;;;;;;;;9.64;74.51;99265.59;5141810;27;26850;-78
2021/12/28 03:23:24;;;;;;;;;;;;;;;9.67;74.64;99270.63;5141645;27;27016;-78
2021/12/28 03:25:50;;;;;;;;;;;;;;;9.69;74.58;99273.97;5141288;27;27087;-78
2021/12/28 03:28:20;;;;;;;;;;;;;;;9.70;74.27;99271.31;5141205;27;27946;-78
2021/12/28 03:30:46;;;;;;;;;;;;;;;9.71;74.37;99266.97;5141352;27;26830;-78
2021/12/28 03:33:11;;;;;;;;;;;;;;;9.74;74.22;99263.44;5144231;27;26913;-78
2021/12/28 03:35:37;;;;;;;;;;;;;;;9.75;74.33;99257.41;5147221;27;26990;-77
2021/12/28 03:38:02;;;;;;;;;;;;;;;9.77;74.34;99255.56;5143511;27;26843;-78
2021/12/28 03:40:27;;;;;;;;;;;;;;;9.79;74.33;99248.56;5143350;27;26821;-78
2021/12/28 03:42:52;;;;;;;;;;;;;;;9.79;74.10;99243.41;5142616;27;31732;-78
2021/12/28 03:45:17;;;;;;;;;;;;;;;9.79;74.50;99240.84;5140247;27;26920;-79
2021/12/28 03:47:43;;;;;;;;;;;;;;;9.80;74.37;99229.63;5141104;27;40682;-78
2021/12/28 03:50:09;;;;;;;;;;;;;;;9.80;74.33;99229.63;5143227;27;26981;-78
2021/12/28 03:52:35;;;;;;;;;;;;;;;9.80;74.72;99229.63;5139717;27;26873;-78
2021/12/28 03:55:00;;;;;;;;;;;;;;;9.80;74.83;99225.31;5146635;27;26980;-77
2021/12/28 03:57:25;;;;;;;;;;;;;;;9.81;74.30;99221.00;5142837;27;27183;-78
2021/12/28 03:59:51;;;;;;;;;;;;;;;9.79;74.17;99212.47;5141473;27;26829;-78
2021/12/28 04:02:16;;;;;;;;;;;;;;;9.77;74.27;99214.31;5141015;27;26721;-78
2021/12/28 04:04:41;;;;;;;;;;;;;;;9.75;74.44;99211.78;5138895;27;53359;-78
2021/12/28 04:07:09;;;;;;;;;;;;;;;9.74;73.93;99209.31;5137919;27;47397;-78
2021/12/28 04:09:57;;;;;;;;;;;;;;;9.73;74.10;99202.47;5140108;27;26885;-78
2021/12/28 04:12:20;;;;;;;;;;;;;;;9.76;74.63;99207.47;5141939;27;27239;-78
2021/12/28 04:14:46;;;;;;;;;;;;;;;9.77;74.09;99198.84;5142429;27;26843;-78
2021/12/28 04:17:11;;;;;;;;;;;;;;;9.79;74.73;99207.31;5141666;27;27017;-78
2021/12/28 04:19:36;;;;;;;;;;;;;;;9.81;74.17;99200.38;5142160;27;26841;-77
2021/12/28 04:22:02;;;;;;;;;;;;;;;9.83;74.74;99193.38;5141227;27;45013;-77
2021/12/28 04:24:27;;;;;;;;;;;;;;;9.84;74.80;99195.91;5141343;27;26900;-79
2021/12/28 04:26:52;;;;;;;;;;;;;;;9.85;74.65;99191.59;5140591;27;26988;-78
2021/12/28 04:29:18;;;;;;;;;;;;;;;9.87;73.94;99190.59;5138955;27;54336;-79
2021/12/28 04:31:43;;;;;;;;;;;;;;;9.91;74.76;99188.69;5139667;27;27770;-78
2021/12/28 04:34:08;;;;;;;;;;;;;;;9.93;74.36;99190.31;5138894;27;26917;-79
2021/12/28 04:36:33;;;;;;;;;;;;;;;9.95;74.33;99183.31;5139290;27;27044;-79
2021/12/28 04:38:59;;;;;;;;;;;;;;;9.96;74.56;99179.84;5138963;27;45336;-78
2021/12/28 04:41:24;;;;;;;;;;;;;;;9.99;74.05;99186.59;5141256;27;27032;-78
2021/12/28 04:43:49;;;;;;;;;;;;;;;10.01;73.81;99184.78;5141636;27;26793;-78
2021/12/28 04:46:15;;;;;;;;;;;;;;;10.01;74.71;99177.03;5141503;27;27270;-77
2021/12/28 04:48:40;;;;;;;;;;;;;;;9.99;74.24;99184.84;5145651;27;26810;-78
2021/12/28 04:51:06;;;;;;;;;;;;;;;9.98;73.62;99187.50;5141256;27;36659;-78
2021/12/28 04:53:31;;;;;;;;;;;;;;;9.94;73.84;99196.28;5141643;27;26883;-78
2021/12/28 04:55:57;;;;;;;;;;;;;;;9.91;74.24;99196.44;5122603;27;27632;-78
2021/12/28 04:58:22;;;;;;;;;;;;;;;9.88;73.92;99191.44;5141122;27;26712;-78
2021/12/28 05:00:48;;;;;;;;;;;;;;;9.84;73.87;99179.59;5141729;27;27023;-78
2021/12/28 05:03:14;;;;;;;;;;;;;;;9.78;73.86;99185.06;5140581;27;26900;-78
2021/12/28 05:05:43;;;;;;;;;;;;;;;9.74;73.01;99173.22;5140325;27;26890;-79
2021/12/28 05:08:08;;;;;;;;;;;;;;;9.69;73.49;99176.84;5139700;27;26944;-78
2021/12/28 05:10:33;;;;;;;;;;;;;;;9.66;73.59;99166.69;5139580;27;36402;-78
2021/12/28 05:12:58;;;;;;;;;;;;;;;9.64;73.11;99173.63;5140822;27;26766;-78
2021/12/28 05:15:24;;;;;;;;;;;;;;;9.60;73.88;99166.94;5145512;27;26943;-78
2021/12/28 05:17:49;;;;;;;;;;;;;;;9.59;73.74;99178.19;5144693;27;27168;-78
2021/12/28 05:20:14;;;;;;;;;;;;;;;9.57;74.00;99167.09;5141469;27;56085;-78
2021/12/28 05:22:39;;;;;;;;;;;;;;;9.57;73.54;99167.09;5142288;27;26791;-79
2021/12/28 05:25:05;;;;;;;;;;;;;;;9.56;73.78;99168.00;5142365;27;26968;-78
2021/12/28 05:27:30;;;;;;;;;;;;;;;9.57;73.70;99167.09;5142681;27;26961;-79
2021/12/28 05:29:55;;;;;;;;;;;;;;;9.59;74.15;99165.31;5144828;27;47552;-79
2021/12/28 05:32:21;;;;;;;;;;;;;;;9.61;74.36;99158.31;5143461;27;26850;-78
2021/12/28 05:34:46;;;;;;;;;;;;;;;9.63;74.49;99156.53;5143323;27;26844;-79
2021/12/28 05:37:11;;;;;;;;;;;;;;;9.67;74.34;99158.00;5142740;27;27004;-79
2021/12/28 05:39:36;;;;;;;;;;;;;;;9.70;74.57;99152.75;5142892;27;26903;-79
2021/12/28 05:42:02;;;;;;;;;;;;;;;9.75;74.10;99149.09;5142254;27;32903;-78
2021/12/28 05:44:27;;;;;;;;;;;;;;;9.77;74.11;99147.28;5142216;27;27744;-79
2021/12/28 05:46:54;;;;;;;;;;;;;;;9.80;74.50;99147.13;5142438;27;26961;-79
2021/12/28 05:49:19;;;;;;;;;;;;;;;9.82;74.20;99145.31;5142207;27;27392;-79
2021/12/28 05:51:44;;;;;;;;;;;;;;;9.84;74.37;99134.00;5142869;27;26613;-79
2021/12/28 05:54:10;;;;;;;;;;;;;;;9.85;74.43;99134.84;5141124;27;52652;-78
2021/12/28 05:56:36;;;;;;;;;;;;;;;9.84;74.22;99128.84;5142190;27;26737;-79
2021/12/28 05:59:02;;;;;;;;;;;;;;;9.83;73.50;99121.19;5142455;27;27087;-78
2021/12/28 06:01:27;;;;;;;;;;;;;;;9.81;73.88;99117.84;5142107;27;26993;-78
2021/12/28 06:03:52;;;;;;;;;;;;;;;9.77;73.24;99116.34;5141143;27;55953;-78
2021/12/28 06:06:17;;;;;;;;;;;;;;;9.77;73.17;99121.50;5140547;27;55315;-78
2021/12/28 06:08:42;;;;;;;;;;;;;;;9.74;73.48;99116.50;5140375;27;53503;-78
2021/12/28 06:11:12;;;;;;;;;;;;;;;9.70;73.81;99106.34;5141517;27;26787;-79
2021/12/28 06:13:37;;;;;;;;;;;;;;;9.67;73.45;99108.22;5141434;27;26801;-81
2021/12/28 06:16:02;;;;;;;;;;;;;;;9.63;73.53;99110.13;5140534;27;55160;-78
2021/12/28 06:18:27;;;;;;;;;;;;;;;9.61;73.37;99106.78;5140991;27;26707;-79
2021/12/28 06:20:53;;;;;;;;;;;;;;;9.58;73.40;99106.91;5141512;27;26866;-78
2021/12/28 06:23:18;;;;;;;;;;;;;;;9.57;74.10;99104.41;5140242;27;57138;-78
2021/12/28 06:25:43;;;;;;;;;;;;;;;9.55;73.82;99101.91;5140729;27;33493;-78
2021/12/28 06:28:08;;;;;;;;;;;;;;;9.55;74.09;99101.91;5141527;27;26787;-78
2021/12/28 06:30:34;;;;;;;;;;;;;;;9.54;74.17;99102.81;5141780;27;26782;-78
2021/12/28 06:32:59;;;;;;;;;;;;;;;9.54;74.23;99107.97;5140848;27;26835;-78
2021/12/28 06:35:25;;;;;;;;;;;;;;;9.56;74.27;99105.34;5141414;27;26948;-78
2021/12/28 06:37:50;;;;;;;;;;;;;;;9.56;74.70;99103.56;5140667;27;26856;-78
2021/12/28 06:40:15;;;;;;;;;;;;;;;9.60;74.37;99115.41;5140665;27;48198;-79
2021/12/28 06:42:40;;;;;;;;;;;;;;;9.65;74.25;99113.44;5148229;27;27800;-78
2021/12/28 06:45:06;;;;;;;;;;;;;;;9.71;74.37;99112.31;5145344;27;26733;-79
2021/12/28 06:47:31;;;;;;;;;;;;;;;9.78;74.58;99112.84;5141498;27;27398;-79
2021/12/28 06:49:56;;;;;;;;;;;;;;;9.82;75.01;99096.34;5140920;27;27076;-78
2021/12/28 06:52:22;;;;;;;;;;;;;;;9.86;74.84;99095.28;5141096;27;26897;-78
2021/12/28 06:54:47;;;;;;;;;;;;;;;9.89;74.68;99095.13;5143694;27;27107;-79
2021/12/28 06:57:12;;;;;;;;;;;;;;;9.89;74.50;99095.97;5150069;27;29705;-79
2021/12/28 06:59:43;;;;;;;;;;;;;;;9.89;74.35;99101.13;5141752;27;26846;-79
2021/12/28 07:02:08;;;;;;;;;;;;;;;9.91;74.59;99098.44;5141150;27;26749;-78
2021/12/28 07:04:33;;;;;;;;;;;;;;;9.93;74.55;99088.91;5140718;27;26416;-78
2021/12/28 07:06:58;;;;;;;;;;;;;;;9.94;73.91;99098.28;5139344;27;27023;-79
2021/12/28 07:09:24;;;;;;;;;;;;;;;9.92;74.42;99095.81;5140596;27;26869;-77
2021/12/28 07:11:49;;;;;;;;;;;;;;;9.96;74.41;99097.31;5141376;27;27033;-78
2021/12/28 07:14:14;;;;;;;;;;;;;;;9.96;74.19;99091.31;5140031;27;54788;-77
2021/12/28 07:16:39;;;;;;;;;;;;;;;9.96;73.57;99091.31;5141273;27;26918;-78
2021/12/28 07:19:09;;;;;;;;;;;;;;;9.93;73.99;99086.31;5141149;27;26971;-77
2021/12/28 07:21:35;;;;;;;;;;;;;;;9.94;74.17;99091.38;5141187;27;27480;-78
2021/12/28 07:24:00;;;;;;;;;;;;;;;9.94;74.35;99088.81;5142100;27;27083;-77
2021/12/28 07:26:25;;;;;;;;;;;;;;;9.94;74.35;99087.97;5141521;27;57080;-77
2021/12/28 07:28:51;;;;;;;;;;;;;;;9.94;73.91;99087.97;5142014;27;43540;-77
2021/12/28 07:31:16;;;;;;;;;;;;;;;9.97;74.08;99087.84;5142615;27;27040;-77
2021/12/28 07:33:41;;;;;;;;;;;;;;;9.98;74.18;99094.63;5142629;27;26872;-78
2021/12/28 07:36:06;;;;;;;;;;;;;;;9.99;74.11;99093.75;5142018;27;27199;-77
2021/12/28 07:38:31;;;;;;;;;;;;;;;10.01;73.92;99085.00;5141893;27;48093;-78
2021/12/28 07:40:57;;;;;;;;;;;;;;;10.06;73.98;99077.03;5141496;27;54723;-78
2021/12/28 07:43:22;;;;;;;;;;;;;;;10.07;74.36;99074.41;5141357;27;47489;-77
2021/12/28 07:45:47;;;;;;;;;;;;;;;10.10;74.68;99073.41;5142175;27;26907;-77
2021/12/28 07:48:12;;;;;;;;;;;;;;;10.13;74.25;99078.41;5142308;27;26765;-78
2021/12/28 07:50:37;;;;;;;;;;;;;;;10.17;74.09;99079.94;5141649;27;47873;-77
2021/12/28 07:53:03;;;;;;;;;;;;;;;10.19;74.53;99078.13;5142286;27;26926;-78
2021/12/28 07:55:28;;;;;;;;;;;;;;;10.23;73.58;99074.50;5144594;27;26932;-77
2021/12/28 07:57:53;;;;;;;;;;;;;;;10.27;74.08;99078.59;5146052;27;55141;-78
2021/12/28 08:00:19;;;;;;;;;;;;;;;10.32;73.96;99084.31;5142758;27;26820;-77
2021/12/28 08:02:45;;;;;;;;;;;;;;;10.34;73.83;99079.94;5140794;27;26361;-77
2021/12/28 08:05:12;;;;;;;;;;;;;;;10.37;73.50;99076.34;5139675;27;27016;-78
2021/12/28 08:07:37;;;;;;;;;;;;;;;10.41;74.47;99073.53;5139598;27;26709;-79
2021/12/28 08:10:03;;;;;;;;;;;;;;;10.43;73.76;99071.69;5140008;27;26985;-78
2021/12/28 08:12:28;;;;;;;;;;;;;;;10.47;74.05;99073.19;5139202;27;26861;-78
2021/12/28 08:14:53;;;;;;;;;;;;;;;10.46;73.39;99076.69;5139623;27;57174;-77
2021/12/28 08:17:18;;;;;;;;;;;;;;;10.44;73.06;99067.38;5141609;27;27036;-78
2021/12/28 08:19:44;;;;;;;;;;;;;;;10.46;73.68;99066.38;5139941;27;39114;-79
2021/12/28 08:22:09;;;;;;;;;;;;;;;10.46;73.96;99062.97;5138320;27;54977;-78
2021/12/28 08:24:34;;;;;;;;;;;;;;;10.45;73.89;99064.72;5139561;27;26903;-79
2021/12/28 08:27:00;;;;;;;;;;;;;;;10.44;73.35;99057.88;5139212;27;27079;-78
2021/12/28 08:29:25;;;;;;;;;;;;;;;10.47;74.02;99062.88;5139480;27;26844;-78
2021/12/28 08:31:50;;;;;;;;;;;;;;;10.49;73.76;99071.38;5139524;27;26961;-78
2021/12/28 08:34:16;;;;;;;;;;;;;;;10.54;73.91;99061.63;5138920;27;38462;-78
2021/12/28 08:36:41;;;;;;;;;;;;;;;10.58;74.29;99065.72;5139004;27;29360;-79
2021/12/28 08:39:06;;;;;;;;;;;;;;;10.61;74.22;99050.06;5139538;27;26963;-78
2021/12/28 08:41:31;;;;;;;;;;;;;;;10.64;73.23;99055.09;5138539;27;42594;-78
2021/12/28 08:43:56;;;;;;;;;;;;;;;10.67;73.77;99054.09;5138799;27;26759;-78
2021/12/28 08:46:22;;;;;;;;;;;;;;;10.71;73.22;99049.59;5137986;27;26816;-78
2021/12/28 08:48:47;;;;;;;;;;;;;;;10.74;72.98;99049.44;5137059;27;54834;-78
2021/12/28 08:51:13;;;;;;;;;;;;;;;10.77;73.39;99052.66;5139078;27;26994;-78
2021/12/28 08:53:38;;;;;;;;;;;;;;;10.81;73.40;99051.59;5139048;27;27186;-78
2021/12/28 08:56:03;;;;;;;;;;;;;;;10.85;73.33;99052.25;5138973;27;26910;-78
2021/12/28 08:58:28;;;;;;;;;;;;;;;10.92;73.52;99048.44;5138673;27;27761;-78
2021/12/28 09:00:53;;;;;;;;;;;;;;;10.97;72.99;99052.44;5138597;27;39579;-79
2021/12/28 09:03:19;;;;;;;;;;;;;;;11.04;74.12;99050.34;5139499;27;26929;-78
2021/12/28 09:05:44;;;;;;;;;;;;;;;11.10;73.78;99042.25;5138664;27;26812;-79
2021/12/28 09:08:13;;;;;;;;;;;;;;;11.14;73.59;99043.75;5137440;27;45532;-78
2021/12/28 09:10:39;;;;;;;;;;;;;;;11.19;73.17;99036.56;5143354;27;26804;-79
2021/12/28 09:13:04;;;;;;;;;;;;;;;11.24;73.58;99034.59;5140158;27;26886;-78
2021/12/28 09:15:29;;;;;;;;;;;;;;;11.26;72.57;99026.72;5139886;27;26942;-78
2021/12/28 09:17:55;;;;;;;;;;;;;;;11.30;73.12;99029.06;5139007;27;28662;-78
2021/12/28 09:20:22;;;;;;;;;;;;;;;11.38;73.43;99024.28;5138966;27;26842;-79
2021/12/28 09:22:47;;;;;;;;;;;;;;;11.43;73.17;99024.88;5138767;27;26820;-79
2021/12/28 09:25:15;;;;;;;;;;;;;;;11.49;72.87;99016.75;5138903;27;26954;-78
2021/12/28 09:27:41;;;;;;;;;;;;;;;11.54;73.17;99013.91;5139695;27;27395;-78
2021/12/28 09:30:07;;;;;;;;;;;;;;;11.59;73.03;99004.97;5120870;27;27000;-78
2021/12/28 09:32:32;;;;;;;;;;;;;;;11.63;72.85;99009.03;5139189;27;27589;-78
2021/12/28 09:34:58;;;;;;;;;;;;;;;11.67;72.75;99006.25;5141859;27;37183;-78
2021/12/28 09:37:23;;;;;;;;;;;;;;;11.72;71.90;99001.69;5142759;27;28209;-79
2021/12/28 09:39:48;;;;;;;;;;;;;;;11.73;72.64;99008.53;5141543;27;26892;-78
2021/12/28 09:42:14;;;;;;;;;;;;;;;11.79;72.44;99010.75;5141732;27;26881;-79
2021/12/28 09:44:39;;;;;;;;;;;;;;;11.83;72.29;99004.47;5141424;27;26885;-79
2021/12/28 09:47:05;;;;;;;;;;;;;;;11.88;72.57;99007.66;5141586;27;27077;-79
2021/12/28 09:49:31;;;;;;;;;;;;;;;11.91;71.63;98994.53;5141283;27;26778;-78
2021/12/28 09:51:57;;;;;;;;;;;;;;;11.93;71.74;98987.50;5141175;27;27052;-78
2021/12/28 09:54:24;;;;;;;;;;;;;;;11.96;71.49;98992.50;5141593;27;26716;-78
2021/12/28 09:56:49;;;;;;;;;;;;;;;12.00;71.80;98988.78;5141112;27;27166;-78
2021/12/28 09:59:15;;;;;;;;;;;;;;;12.03;71.88;98991.22;5142188;27;26801;-78
2021/12/28 10:01:41;;;;;;;;;;;;;;;12.06;71.49;98989.28;5143770;27;32992;-78
2021/12/28 10:04:06;;;;;;;;;;;;;;;12.09;71.65;98988.25;5144179;27;27031;-78
2021/12/28 10:06:32;;;;;;;;;;;;;;;12.13;71.41;98979.38;5144222;27;30260;-78
2021/12/28 10:09:08;;;;;;;;;;;;;;;12.14;71.52;98986.22;5143759;27;26849;-79
2021/12/28 10:11:34;;;;;;;;;;;;;;;12.16;71.40;98968.81;5142378;27;26901;-78
2021/12/28 10:14:10;;;;;;;;;;;;;;;12.17;71.37;98957.56;5142667;27;26970;-78
2021/12/28 10:16:43;;;;;;;;;;;;;;;12.19;71.72;98958.28;5143126;27;27861;-78
2021/12/28 10:19:27;;;;;;;;;;;;;;;12.21;71.04;98956.44;5143720;27;27016;-78
2021/12/28 10:21:52;;;;;;;;;;;;;;;12.25;71.45;98957.09;5154170;27;26998;-78
2021/12/28 10:24:29;;;;;;;;;;;;;;;12.25;71.59;98947.56;5146150;27;53979;-79
2021/12/28 10:27:10;;;;;;;;;;;;;;;12.25;71.25;98947.56;5144431;27;27967;-78
2021/12/28 10:29:36;;;;;;;;;;;;;;;12.15;71.05;98949.03;5143569;27;26803;-78
2021/12/28 10:32:18;;;;;;;;;;;;;;;12.06;70.87;98941.84;5142508;27;26748;-78
2021/12/28 10:34:44;;;;;;;;;;;;;;;11.98;71.33;98929.38;5142270;27;27022;-78
2021/12/28 10:37:13;;;;;;;;;;;;;;;11.91;71.46;98927.25;5141837;27;27045;-78
2021/12/28 10:39:42;;;;;;;;;;;;;;;11.84;71.59;98925.97;5140904;27;27021;-77
2021/12/28 10:42:07;;;;;;;;;;;;;;;11.80;71.40;98924.50;5140668;27;27216;-77
2021/12/28 10:44:52;;;;;;;;;;;;;;;11.74;72.25;98914.50;5141982;27;27181;-77
2021/12/28 10:47:25;;;;;;;;;;;;;;;11.68;72.39;98909.66;5142922;27;27616;-77
2021/12/28 10:49:50;;;;;;;;;;;;;;;11.63;72.98;98908.19;5141330;27;26874;-78
2021/12/28 10:52:32;;;;;;;;;;;;;;;11.50;72.76;98881.41;5140817;27;27029;-78
2021/12/28 10:55:16;;;;;;;;;;;;;;;11.57;72.66;98898.22;5140545;27;27164;-78
2021/12/28 10:57:41;;;;;;;;;;;;;;;11.55;73.42;98900.03;5139639;27;27035;-80
2021/12/28 11:00:20;;;;;;;;;;;;;;;11.55;72.85;98894.88;5138871;27;55196;-80
2021/12/28 11:02:45;;;;;;;;;;;;;;;11.54;73.24;98877.72;5139933;27;27351;-81
2021/12/28 11:05:30;;;;;;;;;;;;;;;11.55;73.39;98874.19;5140786;27;26975;-81
2021/12/28 11:07:56;;;;;;;;;;;;;;;11.53;73.36;98881.22;5140695;27;27140;-80
2021/12/28 11:10:25;;;;;;;;;;;;;;;11.56;73.49;98869.84;5146936;27;26634;-80
2021/12/28 11:12:50;;;;;;;;;;;;;;;11.59;73.61;98865.31;5145967;27;26859;-81
2021/12/28 11:15:19;;;;;;;;;;;;;;;11.59;73.19;98865.31;5146667;27;26933;-79
2021/12/28 11:17:46;;;;;;;;;;;;;;;11.63;73.60;98856.47;5145113;27;27287;-79
2021/12/28 11:20:11;;;;;;;;;;;;;;;11.65;74.25;98848.63;5144541;27;27020;-79
2021/12/28 11:22:36;;;;;;;;;;;;;;;11.70;74.08;98844.00;5144784;27;26755;-79
2021/12/28 11:25:02;;;;;;;;;;;;;;;11.69;73.98;98839.75;5143587;27;26910;-79
2021/12/28 11:27:27;;;;;;;;;;;;;;;11.69;74.13;98834.59;5144178;27;27758;-79
2021/12/28 11:29:53;;;;;;;;;;;;;;;11.72;74.30;98831.00;5143546;27;26924;-79
2021/12/28 11:32:20;;;;;;;;;;;;;;;11.72;74.53;98833.59;5143146;27;27101;-79
2021/12/28 11:34:46;;;;;;;;;;;;;;;11.74;74.18;98826.56;5142280;27;26750;-79
2021/12/28 11:37:15;;;;;;;;;;;;;;;11.76;73.64;98819.56;5142215;27;27686;-79
2021/12/28 11:39:40;;;;;;;;;;;;;;;11.78;74.18;98818.53;5142415;27;26918;-79
2021/12/28 11:42:07;;;;;;;;;;;;;;;11.80;74.18;98815.84;5141278;27;51366;-79
2021/12/28 11:44:34;;;;;;;;;;;;;;;11.83;74.98;98805.31;5141711;27;26805;-79
2021/12/28 11:47:00;;;;;;;;;;;;;;;11.85;74.14;98803.44;5141589;27;27557;-78
2021/12/28 11:49:28;;;;;;;;;;;;;;;11.89;74.24;98799.75;5140431;27;27030;-79
2021/12/28 11:51:54;;;;;;;;;;;;;;;11.90;74.32;98796.25;5141712;27;27012;-79
2021/12/28 11:54:21;;;;;;;;;;;;;;;11.93;74.87;98793.44;5146692;27;26800;-79
2021/12/28 11:56:55;;;;;;;;;;;;;;;11.96;74.18;98785.53;5145503;27;28756;-79
2021/12/28 11:59:21;;;;;;;;;;;;;;;12.01;74.52;98778.28;5145384;27;26976;-79
2021/12/28 12:02:07;;;;;;;;;;;;;;;12.05;74.09;98779.75;5144394;27;27701;-79
2021/12/28 12:04:32;;;;;;;;;;;;;;;12.07;74.33;98772.75;5142781;27;26917;-78
2021/12/28 12:07:17;;;;;;;;;;;;;;;12.09;74.31;98770.88;5142752;27;27445;-79
2021/12/28 12:09:49;;;;;;;;;;;;;;;12.11;74.68;98764.66;5141715;27;27113;-78
2021/12/28 12:12:16;;;;;;;;;;;;;;;12.17;74.58;98763.47;5140149;27;26885;-78
2021/12/28 12:14:51;;;;;;;;;;;;;;;12.16;74.60;98756.59;5140365;27;26892;-78
2021/12/28 12:17:38;;;;;;;;;;;;;;;12.17;74.55;98752.28;5140315;27;26863;-78
2021/12/28 12:20:06;;;;;;;;;;;;;;;12.18;74.84;98744.41;5141974;27;26765;-79
2021/12/28 12:22:39;;;;;;;;;;;;;;;12.18;74.30;98749.59;5142731;27;28026;-78
2021/12/28 12:25:06;;;;;;;;;;;;;;;12.18;74.86;98744.41;5142071;27;27059;-79
2021/12/28 12:27:49;;;;;;;;;;;;;;;12.19;74.28;98735.69;5142363;27;26896;-78
2021/12/28 12:30:16;;;;;;;;;;;;;;;12.19;74.76;98733.13;5141638;27;26766;-78
2021/12/28 12:33:06;;;;;;;;;;;;;;;12.19;74.52;98729.69;5140990;27;26820;-78
2021/12/28 12:35:33;;;;;;;;;;;;;;;12.18;74.60;98728.88;5143052;27;27055;-79
2021/12/28 12:38:00;;;;;;;;;;;;;;;12.19;74.37;98715.00;5141544;27;26862;-79
2021/12/28 12:40:43;;;;;;;;;;;;;;;12.21;74.34;98713.16;5140432;27;26745;-78
2021/12/28 12:43:12;;;;;;;;;;;;;;;12.24;74.78;98710.38;5142488;27;27045;-79
2021/12/28 12:45:54;;;;;;;;;;;;;;;12.27;74.58;98701.56;5141267;27;26909;-78
2021/12/28 12:48:41;;;;;;;;;;;;;;;12.26;74.60;98695.53;5140238;27;26857;-79